tribalwars.co.uk alexa rank chart, tribalwars.co.uk alexa rank daily changes

tribalwars.co.uk alexa rank chart, tribalwars.co.uk alexa rank daily changes

tribalwars.co.uk
Actual rank:
154 655

RANK HISTORY

Date Rank Diff
2018/04/24 154 655 +11 876
2018/04/23 142 779 -68 719
2018/04/22 211 498 -168 036
2018/04/21 379 534 +218 347
2018/04/20 161 187 -100 292
2018/04/19 261 479 +58 802
2018/04/18 202 677 +18 119
2018/04/17 184 558 -28 800
2018/04/15 213 358 -481 598
2018/04/14 694 956 +429 223
2018/04/13 265 733 -55
2018/04/12 265 788 +37 154
2018/04/11 228 634 +52 458
2018/04/10 176 176 -57 914
2018/04/09 234 090 +23 458
2018/04/08 210 632 -10 253
2018/04/07 220 885 +89 313
2018/04/06 131 572 -106 992
2018/04/05 238 564 +37 884
2018/04/04 200 680 +67 781
2018/04/03 132 899 -54 528
2018/04/02 187 427 -178 982
2018/04/01 366 409 +141 724
2018/03/31 224 685 -439 369
2018/03/30 664 054 -32 100
2018/03/29 696 154 +446 252
2018/03/28 249 902 -40 839
2018/03/27 290 741 -15 018
2018/03/26 305 759 -329 624
2018/03/25 635 383 +240 755
2018/03/24 394 628 -7 303
2018/03/23 401 931 +216 106
2018/03/22 185 825 -532 990
2018/03/21 718 815 +147 845
2018/03/20 570 970 +40 574
2018/03/19 530 396 +271 923
2018/03/18 258 473 -442 902
2018/03/17 701 375 +293 082
2018/03/16 408 293 -43 761
2018/03/15 452 054 +48 809
2018/03/14 403 245 -186 712
2018/03/13 589 957 +378 477
2018/03/12 211 480 -76 498
2018/03/11 287 978 -418 923
2018/03/10 706 901 +474 519
2018/03/09 232 382 -517 221
2018/03/08 749 603 -14 750
2018/03/07 764 353 +591 020
2018/03/06 173 333 -31 238
2018/03/05 204 571 -195 579
2018/03/04 400 150 -145 774
2018/03/03 545 924 +418 474
2018/03/02 127 450 -16 295
2018/03/01 143 745 -48 918
2018/02/28 192 663 -20 678
2018/02/27 213 341 -48 868
2018/02/26 262 209 +93 939
2018/02/25 168 270 -139 349
2018/02/24 307 619 +73 325
2018/02/23 234 294

WIDGET FOR YOUR SITE

DOMAINS WITH THE NEAREST RANK

Domain Rank
berluti.com 154 650
earny.co 154 651
coomeva.com.co 154 652
arabseed.video 154 653
lg-roms.com 154 654
tribalwars.co.uk 154 655
powerofbytes.com 154 656
udc.edu 154 657
livsmedelsverket.se 154 658
hajduk.hr 154 659
impressionen.de 154 660

DOMAINS WITH THE NEAREST RANK BY TLD .co.uk

Domain Rank
pureportugal.co.uk 153 944
for-sale.co.uk 153 965
hotpoint.co.uk 154 077
cafepress.co.uk 154 272
carehome.co.uk 154 586
tribalwars.co.uk 154 655
theprintspace.co.uk 154 665
brittany-ferries.co.uk 154 840
bandmix.co.uk 154 892
pedr.co.uk 154 893
keepcalmtalklaw.co.uk 154 925